KRWF/RWF METAR and TAF weather

Enter ICAO airport designator
Station Type Date Time Source
KRWF METAR 2019/02/16 07:53 UTC NOAA

KRWF 160753Z AUTO 30004KT 10SM CLR M21/M22 A3016 RMK AO2 SLP243 T12061222


Station Type Date Time Source
KRWF Decoded METAR 2019/02/16 07:53 UTC NOAA

REDWOOD FALLS MUNICIPAL, MN, United States (KRWF) 44-33N 95-05W 311M
Feb 16, 2019 - 02:53 AM EST / 2019.02.16 0753 UTC
Wind: from the WNW (300 degrees) at 5 MPH (4 KT):0
Visibility: 10 mile(s):0
Sky conditions: clear
Temperature: -5.1 F (-20.6 C)
Windchill: -16 F (-27 C):2
Dew Point: -8.0 F (-22.2 C)
Relative Humidity: 86%
Pressure (altimeter): 30.16 in. Hg (1021 hPa)
ob: KRWF 160753Z AUTO 30004KT 10SM CLR M21/M22 A3016 RMK AO2 SLP243 T12061222
cycle: 8

Station Type Date Time Source
KRWF TAF 2019/02/16 06:27 UTC NOAA

TAF KRWF 160524Z 1606/1706 VRB03KT P6SM BKN200
FM161300 12007KT P6SM FEW020 BKN100
FM162200 10007KT P6SM SCT030 OVC050


Example: see airport list